createdAt,value
2017-11-15T00:00:09.843Z,62.13
2017-11-15T00:02:37.491Z,62.23
2017-11-15T00:05:05.107Z,62.19
2017-11-15T00:07:33.607Z,62.78
2017-11-15T00:10:01.381Z,62.17
2017-11-15T00:12:29.001Z,62.10
2017-11-15T00:14:56.571Z,62.73
2017-11-15T00:17:24.327Z,63.39
2017-11-15T00:19:51.896Z,62.74
2017-11-15T00:22:43.175Z,62.24
2017-11-15T00:25:10.764Z,62.11
2017-11-15T00:27:38.571Z,62.55
2017-11-15T00:30:06.876Z,62.23
2017-11-15T00:32:34.659Z,61.99
2017-11-15T00:35:02.415Z,62.06
2017-11-15T00:37:30.059Z,62.27
2017-11-15T00:39:57.702Z,62.32
2017-11-15T00:42:26.080Z,62.46
2017-11-15T00:44:53.699Z,62.62
2017-11-15T00:47:21.517Z,62.45
2017-11-15T00:49:49.073Z,62.47
2017-11-15T00:52:16.651Z,62.25
2017-11-15T00:54:44.413Z,62.85
2017-11-15T00:57:12.171Z,63.17
2017-11-15T00:59:39.789Z,63.35
2017-11-15T01:02:07.376Z,63.12
2017-11-15T01:04:35.101Z,64.52
2017-11-15T01:07:02.935Z,64.86
2017-11-15T01:09:30.540Z,64.89
2017-11-15T01:11:58.231Z,64.82
2017-11-15T01:14:25.817Z,64.57
2017-11-15T01:16:53.425Z,65.02
2017-11-15T01:19:21.011Z,64.76
2017-11-15T01:21:48.615Z,64.32
2017-11-15T01:24:16.268Z,63.88
2017-11-15T01:26:43.799Z,63.64
2017-11-15T01:29:11.448Z,64.08
2017-11-15T01:31:39.079Z,65.04
2017-11-15T01:34:06.681Z,64.51
2017-11-15T01:36:34.587Z,64.65
2017-11-15T01:39:02.216Z,64.24
2017-11-15T01:41:29.839Z,63.96
2017-11-15T01:43:57.446Z,62.46
2017-11-15T01:46:25.065Z,63.65
2017-11-15T01:48:52.690Z,62.98
2017-11-15T01:51:20.533Z,64.35
2017-11-15T01:53:48.149Z,63.59
2017-11-15T01:56:15.872Z,64.44
2017-11-15T01:58:43.464Z,64.41
2017-11-15T02:01:17.938Z,64.10
2017-11-15T02:03:45.575Z,64.52
2017-11-15T02:06:13.199Z,65.26
2017-11-15T02:08:40.903Z,65.61
2017-11-15T02:11:08.437Z,66.01
2017-11-15T02:13:35.979Z,66.16
2017-11-15T02:16:03.549Z,64.99
2017-11-15T02:18:31.379Z,64.31
2017-11-15T02:20:58.963Z,65.37
2017-11-15T02:23:26.601Z,66.29
2017-11-15T02:25:54.188Z,65.52
2017-11-15T02:28:21.983Z,66.02
2017-11-15T02:30:50.358Z,65.15
2017-11-15T02:33:17.946Z,64.41
2017-11-15T02:35:45.515Z,63.52
2017-11-15T02:38:13.120Z,63.92
2017-11-15T02:40:40.682Z,63.43
2017-11-15T02:43:08.310Z,63.91
2017-11-15T02:45:36.059Z,65.22
2017-11-15T02:48:03.804Z,64.55
2017-11-15T02:50:31.588Z,63.55
2017-11-15T02:52:59.242Z,64.40
2017-11-15T02:55:26.793Z,64.89
2017-11-15T02:57:54.413Z,64.30
2017-11-15T03:00:22.123Z,64.11
2017-11-15T03:02:49.759Z,63.17
2017-11-15T03:05:17.349Z,63.09
2017-11-15T03:07:45.035Z,62.62
2017-11-15T03:10:12.848Z,64.06
2017-11-15T03:12:40.614Z,65.94
2017-11-15T03:15:08.287Z,64.96
2017-11-15T03:17:35.895Z,64.15
2017-11-15T03:20:03.510Z,63.12
2017-11-15T03:22:31.123Z,65.34
2017-11-15T03:24:58.683Z,64.64
2017-11-15T03:27:26.464Z,63.69
2017-11-15T03:29:54.116Z,64.24
2017-11-15T03:32:21.708Z,64.92
2017-11-15T03:34:49.228Z,65.57
2017-11-15T03:37:16.819Z,66.06
2017-11-15T03:39:44.513Z,65.80
2017-11-15T03:42:12.373Z,65.62
2017-11-15T03:44:39.911Z,65.33
2017-11-15T03:47:07.527Z,64.97
2017-11-15T03:49:35.107Z,65.19
2017-11-15T03:52:02.641Z,65.40
2017-11-15T03:54:30.291Z,64.18
2017-11-15T03:56:57.881Z,63.53
2017-11-15T03:59:25.691Z,64.75
2017-11-15T04:01:53.267Z,65.66
2017-11-15T04:04:21.067Z,65.94
2017-11-15T04:06:48.809Z,66.04
2017-11-15T04:09:16.474Z,66.09
2017-11-15T04:11:44.080Z,66.18
2017-11-15T04:14:11.630Z,66.37
2017-11-15T04:16:39.822Z,66.54
2017-11-15T04:19:07.395Z,66.39
2017-11-15T04:21:34.989Z,66.13
2017-11-15T04:24:02.611Z,66.44
2017-11-15T04:26:30.436Z,67.08
2017-11-15T04:28:58.187Z,66.71
2017-11-15T04:31:25.807Z,66.85
2017-11-15T04:33:53.400Z,66.92
2017-11-15T04:36:21.015Z,67.24
2017-11-15T04:38:48.670Z,67.33
2017-11-15T04:41:16.285Z,65.80
2017-11-15T04:43:43.870Z,66.52
2017-11-15T04:46:12.072Z,66.54
2017-11-15T04:48:39.886Z,66.09
2017-11-15T04:51:07.508Z,65.57
2017-11-15T04:53:35.090Z,66.79
2017-11-15T04:56:02.653Z,68.73
2017-11-15T04:58:30.197Z,69.64
2017-11-15T05:00:57.850Z,69.02
2017-11-15T05:03:26.159Z,67.82
2017-11-15T05:05:53.791Z,80.48
2017-11-15T05:08:22.082Z,70.28
2017-11-15T05:13:31.211Z,70.42
2017-11-15T05:15:59.465Z,69.14
2017-11-15T05:18:27.964Z,68.88
2017-11-15T05:20:56.442Z,69.67
2017-11-15T05:23:24.271Z,69.11
2017-11-15T05:25:52.128Z,69.34
2017-11-15T05:28:19.854Z,69.64
2017-11-15T05:30:47.742Z,69.70
2017-11-15T05:33:16.200Z,71.41
2017-11-15T05:35:43.874Z,70.04
2017-11-15T05:38:11.630Z,69.44
2017-11-15T05:40:39.412Z,69.25
2017-11-15T05:43:07.073Z,69.74
2017-11-15T05:45:34.771Z,68.45
2017-11-15T05:48:02.398Z,68.20
2017-11-15T05:50:29.945Z,70.89
2017-11-15T05:52:57.546Z,70.05
2017-11-15T05:55:25.110Z,69.25
2017-11-15T05:57:52.972Z,69.94
2017-11-15T06:00:20.617Z,70.95
2017-11-15T06:02:48.462Z,70.22
2017-11-15T06:05:16.307Z,69.96
2017-11-15T06:07:43.917Z,70.34
2017-11-15T06:10:12.117Z,70.40
2017-11-15T06:12:41.723Z,69.99
2017-11-15T06:15:09.345Z,70.40
2017-11-15T06:17:37.030Z,71.00
2017-11-15T06:20:04.592Z,69.30
2017-11-15T06:22:32.376Z,70.04
2017-11-15T06:25:00.007Z,68.24
2017-11-15T06:27:27.859Z,68.78
2017-11-15T06:29:55.545Z,68.28
2017-11-15T06:32:23.398Z,69.68
2017-11-15T06:34:52.263Z,69.61
2017-11-15T06:37:19.867Z,70.95
2017-11-15T06:39:47.450Z,71.76
2017-11-15T06:42:15.850Z,71.46
2017-11-15T06:44:43.511Z,70.93
2017-11-15T06:47:11.161Z,70.78
2017-11-15T06:49:40.515Z,70.99
2017-11-15T06:52:09.054Z,70.38
2017-11-15T06:54:36.633Z,71.03
2017-11-15T06:57:04.420Z,70.75
2017-11-15T06:59:32.070Z,69.08
2017-11-15T07:01:59.696Z,70.60
2017-11-15T07:04:27.234Z,70.84
2017-11-15T07:06:54.823Z,70.52
2017-11-15T07:09:22.534Z,70.87
2017-11-15T07:11:50.154Z,70.10
2017-11-15T07:14:17.715Z,69.10
2017-11-15T07:16:45.335Z,70.58
2017-11-15T07:19:12.983Z,70.26
2017-11-15T07:21:40.663Z,69.40
2017-11-15T07:24:08.367Z,70.04
2017-11-15T07:26:36.028Z,70.20
2017-11-15T07:29:03.604Z,70.17
2017-11-15T07:31:31.271Z,70.22
2017-11-15T07:33:58.869Z,69.95
2017-11-15T07:36:26.406Z,69.40
2017-11-15T07:38:54.028Z,69.71
2017-11-15T07:41:22.441Z,69.61
2017-11-15T07:43:50.798Z,69.73
2017-11-15T07:46:19.275Z,70.34
2017-11-15T07:48:46.909Z,69.30
2017-11-15T07:51:14.462Z,69.47
2017-11-15T07:53:42.041Z,69.65
2017-11-15T07:56:09.553Z,69.71
2017-11-15T07:58:37.089Z,69.82
2017-11-15T08:01:04.699Z,70.30
2017-11-15T08:03:32.288Z,69.66
2017-11-15T08:05:59.868Z,69.42
2017-11-15T08:08:27.558Z,69.13
2017-11-15T08:10:55.124Z,69.35
2017-11-15T08:13:23.387Z,69.50
2017-11-15T08:15:51.965Z,68.71
2017-11-15T08:18:19.589Z,68.66
2017-11-15T08:20:47.150Z,69.19
2017-11-15T08:23:16.565Z,69.59
2017-11-15T08:25:44.300Z,69.61
2017-11-15T08:28:12.422Z,68.96
2017-11-15T08:30:40.007Z,69.43
2017-11-15T08:33:07.648Z,69.76
2017-11-15T08:35:35.181Z,70.01
2017-11-15T08:38:02.774Z,67.97
2017-11-15T08:40:30.370Z,68.83
2017-11-15T08:42:57.988Z,68.59
2017-11-15T08:45:25.621Z,68.49
2017-11-15T08:47:53.214Z,68.37
2017-11-15T08:50:20.773Z,68.39
2017-11-15T08:52:48.467Z,69.41
2017-11-15T08:55:16.128Z,69.78
2017-11-15T08:57:43.901Z,68.52
2017-11-15T09:00:11.627Z,68.75
2017-11-15T09:02:39.208Z,68.22
2017-11-15T09:05:06.750Z,69.98
2017-11-15T09:07:34.342Z,69.30
2017-11-15T09:10:01.969Z,68.75
2017-11-15T09:12:29.571Z,68.27
2017-11-15T09:14:57.167Z,68.68
2017-11-15T09:17:24.768Z,68.98
2017-11-15T09:19:52.296Z,70.15
2017-11-15T09:22:19.879Z,70.90
2017-11-15T09:24:47.493Z,70.89
2017-11-15T09:27:15.829Z,72.73
2017-11-15T09:29:43.396Z,72.06
2017-11-15T09:32:11.083Z,73.15
2017-11-15T09:34:38.618Z,72.37
2017-11-15T09:37:06.148Z,73.97
2017-11-15T09:39:33.848Z,74.44
2017-11-15T09:42:01.387Z,73.45
2017-11-15T09:44:28.969Z,73.37
2017-11-15T09:46:56.564Z,73.59
2017-11-15T09:49:24.110Z,73.00
2017-11-15T09:51:51.638Z,74.02
2017-11-15T09:54:19.262Z,73.54
2017-11-15T09:56:46.827Z,73.30
2017-11-15T09:59:14.509Z,73.57
2017-11-15T10:01:42.067Z,73.77
2017-11-15T10:04:09.683Z,74.28
2017-11-15T10:06:37.199Z,75.05
2017-11-15T10:09:05.071Z,74.78
2017-11-15T10:11:32.651Z,74.87
2017-11-15T10:14:00.928Z,76.42
2017-11-15T10:16:28.559Z,75.88
2017-11-15T10:18:56.078Z,76.11
2017-11-15T10:21:23.791Z,76.00
2017-11-15T10:23:51.437Z,75.94
2017-11-15T10:26:19.079Z,76.55
2017-11-15T10:28:46.650Z,76.82
2017-11-15T10:31:14.548Z,77.69
2017-11-15T10:33:42.117Z,77.70
2017-11-15T10:36:09.894Z,77.13
2017-11-15T10:38:37.501Z,77.62
2017-11-15T10:41:11.772Z,77.69
2017-11-15T10:43:39.412Z,77.35
2017-11-15T10:46:08.312Z,76.51
2017-11-15T10:48:36.809Z,76.02
2017-11-15T10:51:09.068Z,76.24
2017-11-15T10:53:36.629Z,76.00
2017-11-15T10:56:04.292Z,76.06
2017-11-15T10:58:33.404Z,76.32
2017-11-15T11:01:01.027Z,76.07
2017-11-15T11:03:28.566Z,77.13
2017-11-15T11:05:56.154Z,76.45
2017-11-15T11:08:39.431Z,75.92
2017-11-15T11:11:07.016Z,76.20
2017-11-15T11:13:34.648Z,76.44
2017-11-15T11:16:02.238Z,76.34
2017-11-15T11:18:30.180Z,76.66
2017-11-15T11:20:57.882Z,76.12
2017-11-15T11:23:25.463Z,75.69
2017-11-15T11:25:54.124Z,75.63
2017-11-15T11:28:22.172Z,74.99
2017-11-15T11:30:49.853Z,76.08
2017-11-15T11:33:17.610Z,76.10
2017-11-15T11:35:45.951Z,76.21
2017-11-15T11:38:13.652Z,75.99
2017-11-15T11:40:41.193Z,75.54
2017-11-15T11:43:08.770Z,75.58
2017-11-15T11:45:36.404Z,75.64
2017-11-15T11:48:03.985Z,75.29
2017-11-15T11:50:31.567Z,76.10
2017-11-15T11:52:59.243Z,76.46
2017-11-15T11:55:26.756Z,75.84
2017-11-15T11:57:54.335Z,76.23
2017-11-15T12:00:21.919Z,75.83
2017-11-15T12:02:49.499Z,76.19
2017-11-15T12:05:17.108Z,76.26
2017-11-15T12:07:44.827Z,76.21
2017-11-15T12:10:12.339Z,75.60
2017-11-15T12:12:40.816Z,75.58
2017-11-15T12:15:08.420Z,75.22
2017-11-15T12:17:36.018Z,75.10
2017-11-15T12:20:03.597Z,75.34
2017-11-15T12:22:31.550Z,75.72
2017-11-15T12:24:59.160Z,76.16
2017-11-15T12:27:26.745Z,76.20
2017-11-15T12:29:54.367Z,76.08
2017-11-15T12:32:21.951Z,76.00
2017-11-15T12:34:49.529Z,75.42
2017-11-15T12:37:17.307Z,75.18
2017-11-15T12:39:45.128Z,75.32
2017-11-15T12:42:12.725Z,74.73
2017-11-15T12:44:40.323Z,75.36
2017-11-15T12:47:08.574Z,75.68
2017-11-15T12:49:36.107Z,75.11
2017-11-15T12:52:05.071Z,76.10
2017-11-15T12:54:32.729Z,76.28
2017-11-15T12:57:01.593Z,76.87
2017-11-15T12:59:29.279Z,76.74
2017-11-15T13:01:57.161Z,76.48
2017-11-15T13:04:26.932Z,76.32
2017-11-15T13:06:54.551Z,77.00
2017-11-15T13:09:22.168Z,76.65
2017-11-15T13:11:49.756Z,76.17
2017-11-15T13:14:17.345Z,76.89
2017-11-15T13:16:46.771Z,75.92
2017-11-15T13:19:14.367Z,76.39
2017-11-15T13:21:42.020Z,76.39
2017-11-15T13:24:10.414Z,76.80
2017-11-15T13:26:38.583Z,76.57
2017-11-15T13:29:27.671Z,77.18
2017-11-15T13:31:55.237Z,77.03
2017-11-15T13:34:22.889Z,76.87
2017-11-15T13:36:51.987Z,76.08
2017-11-15T13:39:20.494Z,77.15
2017-11-15T13:44:37.674Z,77.15
2017-11-15T13:47:05.250Z,77.50
2017-11-15T13:49:33.754Z,76.85
2017-11-15T13:52:01.305Z,78.19
2017-11-15T13:54:29.055Z,77.96
2017-11-15T13:56:56.607Z,78.20
2017-11-15T13:59:24.255Z,78.22
2017-11-15T14:01:51.840Z,78.47
2017-11-15T14:04:20.247Z,78.53
2017-11-15T14:06:47.866Z,78.40
2017-11-15T14:09:15.492Z,78.59
2017-11-15T14:11:43.016Z,78.46
2017-11-15T14:14:10.541Z,79.48
2017-11-15T14:16:38.866Z,80.05
2017-11-15T14:19:06.511Z,79.65
2017-11-15T14:21:38.736Z,79.86
2017-11-15T14:24:07.116Z,79.99
2017-11-15T14:26:34.659Z,80.20
2017-11-15T14:29:02.219Z,80.61
2017-11-15T14:31:29.791Z,81.06
2017-11-15T14:33:58.509Z,81.24
2017-11-15T14:36:26.795Z,81.25
2017-11-15T14:38:54.427Z,81.51
2017-11-15T14:41:21.954Z,81.67
2017-11-15T14:43:50.975Z,81.10
2017-11-15T14:46:18.616Z,81.10
2017-11-15T14:48:46.162Z,81.31
2017-11-15T14:51:13.700Z,81.32
2017-11-15T14:53:41.902Z,81.01
2017-11-15T14:56:10.008Z,81.04
2017-11-15T14:58:37.609Z,81.50
2017-11-15T15:01:05.214Z,81.00
2017-11-15T15:03:36.229Z,81.33
2017-11-15T15:06:04.179Z,81.81
2017-11-15T15:08:34.599Z,82.64
2017-11-15T15:11:03.129Z,83.04
2017-11-15T15:13:30.647Z,82.38
2017-11-15T15:16:00.546Z,83.15
2017-11-15T15:18:28.077Z,83.50
2017-11-15T15:23:38.821Z,83.83
2017-11-15T15:26:06.445Z,84.13
2017-11-15T15:28:35.890Z,84.67
2017-11-15T15:31:03.492Z,83.71
2017-11-15T15:33:31.020Z,84.25
2017-11-15T15:35:59.383Z,84.50
2017-11-15T15:38:27.016Z,84.86
2017-11-15T15:40:54.539Z,84.60
2017-11-15T15:43:22.147Z,84.00
2017-11-15T15:45:52.346Z,84.74
2017-11-15T15:48:34.334Z,84.74
2017-11-15T15:51:01.999Z,84.25
2017-11-15T15:53:31.306Z,83.82
2017-11-15T15:55:58.847Z,84.44
2017-11-15T15:58:31.914Z,83.96
2017-11-15T16:01:08.941Z,84.19
2017-11-15T16:06:35.580Z,83.84
2017-11-15T16:09:07.660Z,83.94
2017-11-15T16:12:06.096Z,83.57
2017-11-15T16:17:44.345Z,82.73
2017-11-15T16:20:18.070Z,83.26
2017-11-15T16:22:46.433Z,83.14
2017-11-15T16:25:14.019Z,83.13
2017-11-15T16:27:51.988Z,87.21
2017-11-15T16:30:19.884Z,81.11
2017-11-15T16:32:47.440Z,82.07
2017-11-15T16:35:16.217Z,81.73
2017-11-15T16:40:53.994Z,81.58
2017-11-15T16:43:22.083Z,81.18
2017-11-15T16:45:49.813Z,81.52
2017-11-15T16:48:17.493Z,82.12
2017-11-15T16:50:45.250Z,80.61
2017-11-15T16:53:14.005Z,80.57
2017-11-15T16:55:41.585Z,80.98
2017-11-15T16:58:09.936Z,81.14
2017-11-15T17:00:37.546Z,80.20
2017-11-15T17:03:08.625Z,79.78
2017-11-15T17:05:44.737Z,79.97
2017-11-15T17:08:14.501Z,79.62
2017-11-15T17:10:43.058Z,79.82
2017-11-15T17:16:50.650Z,80.15
2017-11-15T17:19:18.929Z,79.81
2017-11-15T17:21:46.630Z,79.61
2017-11-15T17:24:16.343Z,79.42
2017-11-15T17:26:44.732Z,79.01
2017-11-15T17:29:13.078Z,79.65
2017-11-15T17:31:47.679Z,78.58
2017-11-15T17:34:18.511Z,79.14
2017-11-15T17:36:54.711Z,78.95
2017-11-15T17:39:22.282Z,78.94
2017-11-15T17:41:53.952Z,79.24
2017-11-15T17:44:21.771Z,79.29
2017-11-15T17:46:49.411Z,79.58
2017-11-15T17:49:17.012Z,79.58
2017-11-15T17:51:48.511Z,79.11
2017-11-15T17:54:16.034Z,79.18
2017-11-15T17:56:43.607Z,79.78
2017-11-15T17:59:11.801Z,79.50
2017-11-15T18:01:40.563Z,79.08
2017-11-15T18:04:08.099Z,78.24
2017-11-15T18:06:36.967Z,77.70
2017-11-15T18:09:06.520Z,78.13
2017-11-15T18:11:34.085Z,77.57
2017-11-15T18:14:01.803Z,78.51
2017-11-15T18:16:29.450Z,77.68
2017-11-15T18:18:57.104Z,77.42
2017-11-15T18:21:24.873Z,77.04
2017-11-15T18:23:52.515Z,77.20
2017-11-15T18:26:20.105Z,77.19
2017-11-15T18:28:47.657Z,77.47
2017-11-15T18:31:15.278Z,78.01
2017-11-15T18:33:44.002Z,77.62
2017-11-15T18:36:12.415Z,77.83
2017-11-15T18:38:43.688Z,78.05
2017-11-15T18:41:14.196Z,78.67
2017-11-15T18:43:41.767Z,78.06
2017-11-15T18:46:16.621Z,78.63
2017-11-15T18:48:46.578Z,78.09
2017-11-15T18:51:41.532Z,78.43
2017-11-15T18:54:09.140Z,78.53
2017-11-15T18:56:36.661Z,78.28
2017-11-15T18:59:04.318Z,79.07
2017-11-15T19:01:32.771Z,78.77
2017-11-15T19:04:00.310Z,78.56
2017-11-15T19:06:27.874Z,78.94
2017-11-15T19:08:55.488Z,78.50
2017-11-15T19:11:23.090Z,78.43
2017-11-15T19:13:50.694Z,78.42
2017-11-15T19:16:18.286Z,78.95
2017-11-15T19:18:45.882Z,78.65
2017-11-15T19:21:13.485Z,79.26
2017-11-15T19:23:42.716Z,79.06
2017-11-15T19:26:10.731Z,78.48
2017-11-15T19:28:38.342Z,78.52
2017-11-15T19:31:05.983Z,79.19
2017-11-15T19:33:33.594Z,78.52
2017-11-15T19:36:01.110Z,79.36
2017-11-15T19:38:28.711Z,79.71
2017-11-15T19:40:56.271Z,79.94
2017-11-15T19:43:23.856Z,80.05
2017-11-15T19:45:51.454Z,79.66
2017-11-15T19:48:18.979Z,79.90
2017-11-15T19:50:46.531Z,81.38
2017-11-15T19:53:16.227Z,80.51
2017-11-15T19:55:43.998Z,80.78
2017-11-15T19:58:11.598Z,81.18
2017-11-15T20:00:39.278Z,80.70
2017-11-15T20:03:06.813Z,80.18
2017-11-15T20:05:34.616Z,80.03
2017-11-15T20:08:02.248Z,80.62
2017-11-15T20:10:29.841Z,80.08
2017-11-15T20:12:57.432Z,80.38
2017-11-15T20:15:24.994Z,80.66
2017-11-15T20:17:52.587Z,79.77
2017-11-15T20:20:20.344Z,79.84
2017-11-15T20:22:47.956Z,80.11
2017-11-15T20:25:15.505Z,80.06
2017-11-15T20:27:43.030Z,80.00
2017-11-15T20:30:10.800Z,79.60
2017-11-15T20:32:38.339Z,80.55
2017-11-15T20:35:05.846Z,80.25
2017-11-15T20:37:33.424Z,80.26
2017-11-15T20:40:01.913Z,80.16
2017-11-15T20:42:29.724Z,80.22
2017-11-15T20:44:57.339Z,80.14
2017-11-15T20:47:25.185Z,80.35
2017-11-15T20:49:52.798Z,80.62
2017-11-15T20:52:20.363Z,79.65
2017-11-15T20:54:47.985Z,80.15
2017-11-15T20:57:15.527Z,79.63
2017-11-15T20:59:43.199Z,79.42
2017-11-15T21:02:11.781Z,79.65
2017-11-15T21:04:39.440Z,79.96
2017-11-15T21:07:06.991Z,79.57
2017-11-15T21:09:34.573Z,80.02
2017-11-15T21:12:02.160Z,80.02
2017-11-15T21:14:29.986Z,80.03
2017-11-15T21:16:57.610Z,80.20
2017-11-15T21:19:25.125Z,80.54
2017-11-15T21:21:54.071Z,80.31
2017-11-15T21:24:22.835Z,80.33
2017-11-15T21:26:50.387Z,80.88
2017-11-15T21:29:19.175Z,80.61
2017-11-15T21:31:46.874Z,80.66
2017-11-15T21:34:15.295Z,81.91
2017-11-15T21:36:42.904Z,81.61
2017-11-15T21:39:10.573Z,81.82
2017-11-15T21:41:38.146Z,81.95
2017-11-15T21:44:05.671Z,81.91
2017-11-15T21:46:33.481Z,82.88
2017-11-15T21:49:01.045Z,83.84
2017-11-15T21:51:29.013Z,83.12
2017-11-15T21:53:56.616Z,82.79
2017-11-15T21:56:24.134Z,83.75
2017-11-15T21:58:51.718Z,83.72
2017-11-15T22:01:19.381Z,83.81
2017-11-15T22:03:46.990Z,84.22
2017-11-15T22:06:14.508Z,84.95
2017-11-15T22:08:42.063Z,84.84
2017-11-15T22:11:09.579Z,85.64
2017-11-15T22:13:37.161Z,86.17
2017-11-15T22:16:04.986Z,86.49
2017-11-15T22:18:32.649Z,86.16
2017-11-15T22:21:00.474Z,85.63
2017-11-15T22:23:28.068Z,86.05
2017-11-15T22:25:55.602Z,86.35
2017-11-15T22:28:23.151Z,86.54
2017-11-15T22:30:50.774Z,86.94
2017-11-15T22:33:18.319Z,87.15
2017-11-15T22:35:45.846Z,87.61
2017-11-15T22:38:13.491Z,87.31
2017-11-15T22:40:41.047Z,87.84
2017-11-15T22:43:08.621Z,87.42
2017-11-15T22:45:40.063Z,87.31
2017-11-15T22:51:14.990Z,86.57
2017-11-15T22:53:42.503Z,86.12
2017-11-15T22:56:10.008Z,86.27
2017-11-15T22:58:37.612Z,86.12
2017-11-15T23:01:05.199Z,85.44
2017-11-15T23:03:32.728Z,85.44
2017-11-15T23:06:00.291Z,85.41
2017-11-15T23:08:27.875Z,84.99
2017-11-15T23:10:55.426Z,84.74
2017-11-15T23:13:23.024Z,84.38
2017-11-15T23:15:50.659Z,84.32
2017-11-15T23:18:18.241Z,83.78
2017-11-15T23:20:45.877Z,83.34
2017-11-15T23:23:14.102Z,83.66
2017-11-15T23:25:41.622Z,83.26
2017-11-15T23:28:09.159Z,82.37
2017-11-15T23:30:36.814Z,82.21
2017-11-15T23:33:04.446Z,81.80
2017-11-15T23:35:31.977Z,81.91
2017-11-15T23:37:59.580Z,81.66
2017-11-15T23:40:27.339Z,81.21
2017-11-15T23:42:54.942Z,80.93
2017-11-15T23:45:22.528Z,80.85
2017-11-15T23:47:50.050Z,80.72
2017-11-15T23:50:17.577Z,81.04
2017-11-15T23:52:45.344Z,80.74
2017-11-15T23:55:12.864Z,80.73
2017-11-15T23:57:40.376Z,80.69
